Terminal Aerodrome Forecast
Issued by NWS Springfield, MO

Home | Current Version | Previous Version | Text Only | Print | Product List | Glossary On
Versions: 1 2 3 4 5 6 7 8 9 10 11 12 13 14 15 16 17 18 19 20 21 22 23 24 25 26 27 28 29 30 31 32
000
FTUS43 KSGF 240200 AAA
TAFSGF
TAF AMD
KSGF 240208Z 2402/2424 23011KT 5SM -SHRA BR VCTS SCT007 OVC015CB
     FM240230 34020G35KT 5SM -RADZ BR OVC010
     FM240800 32020G32KT 3SM -RASN BR OVC006
     FM241100 32018G25KT P6SM OVC007
     FM241500 29018G25KT P6SM OVC015
     FM241900 27016G22KT P6SM SCT035=

USA.gov is the U.S. government's official web portal to all federal, state and local government web resources and services.